createdAt,value
2023-03-31T00:00:27.668Z,6.90
2023-03-31T00:01:27.646Z,6.70
2023-03-31T00:02:27.716Z,6.70
2023-03-31T00:03:27.767Z,9.10
2023-03-31T00:04:27.596Z,7.20
2023-03-31T00:05:27.548Z,5.90
2023-03-31T00:06:27.534Z,7.30
2023-03-31T00:07:27.493Z,9.10
2023-03-31T00:08:27.476Z,7.60
2023-03-31T00:09:27.447Z,9.80
2023-03-31T00:10:27.430Z,6.40
2023-03-31T00:11:27.398Z,7.40
2023-03-31T00:12:27.383Z,5.60
2023-03-31T00:13:27.362Z,8.00
2023-03-31T00:14:27.330Z,9.40
2023-03-31T00:15:27.327Z,7.70
2023-03-31T00:16:27.324Z,8.00
2023-03-31T00:17:27.258Z,5.80
2023-03-31T00:18:27.233Z,6.40
2023-03-31T00:19:27.233Z,7.00
2023-03-31T00:20:27.190Z,6.80
2023-03-31T00:21:27.155Z,7.20
2023-03-31T00:22:27.137Z,7.10
2023-03-31T00:23:27.112Z,6.10
2023-03-31T00:24:27.096Z,7.60
2023-03-31T00:25:27.058Z,6.60
2023-03-31T00:26:27.038Z,6.40
2023-03-31T00:27:27.011Z,8.20
2023-03-31T00:28:26.990Z,9.40
2023-03-31T00:29:26.968Z,5.40
2023-03-31T00:30:26.951Z,7.60
2023-03-31T00:31:26.937Z,7.70
2023-03-31T00:32:26.899Z,7.90
2023-03-31T00:33:26.875Z,8.30
2023-03-31T00:34:26.847Z,6.90
2023-03-31T00:35:26.847Z,8.90
2023-03-31T00:36:26.794Z,7.70
2023-03-31T00:37:26.763Z,7.90
2023-03-31T00:38:26.744Z,9.70
2023-03-31T00:39:26.717Z,8.90
2023-03-31T00:40:26.692Z,8.20
2023-03-31T00:41:26.669Z,10.80
2023-03-31T00:42:26.647Z,9.50
2023-03-31T00:43:26.622Z,7.80
2023-03-31T00:44:26.599Z,8.00
2023-03-31T00:45:26.600Z,7.50
2023-03-31T00:46:26.582Z,8.90
2023-03-31T00:47:26.525Z,9.20
2023-03-31T00:48:26.503Z,9.30
2023-03-31T00:49:26.484Z,8.30
2023-03-31T00:50:26.461Z,9.20
2023-03-31T00:51:26.450Z,7.60
2023-03-31T00:52:26.421Z,9.10
2023-03-31T00:53:26.394Z,6.80
2023-03-31T00:54:26.360Z,7.70
2023-03-31T00:55:26.325Z,8.90
2023-03-31T00:56:26.304Z,7.70
2023-03-31T00:57:26.476Z,7.90
2023-03-31T00:58:26.255Z,8.20
2023-03-31T00:59:26.229Z,7.20
2023-03-31T01:00:26.208Z,7.90
2023-03-31T01:01:26.198Z,7.70
2023-03-31T01:02:26.216Z,10.50
2023-03-31T01:03:26.157Z,8.10
2023-03-31T01:04:26.130Z,7.20
2023-03-31T01:05:26.093Z,8.60
2023-03-31T01:06:26.064Z,11.00
2023-03-31T01:07:26.056Z,7.90
2023-03-31T01:08:26.015Z,10.20
2023-03-31T01:09:25.992Z,7.90
2023-03-31T01:10:25.970Z,9.90
2023-03-31T01:11:25.935Z,7.00
2023-03-31T01:12:25.922Z,8.30
2023-03-31T01:13:25.896Z,9.80
2023-03-31T01:14:25.868Z,9.30
2023-03-31T01:16:48.507Z,7.90
2023-03-31T01:17:48.502Z,7.10
2023-03-31T01:18:48.388Z,9.70
2023-03-31T01:19:48.363Z,7.60
2023-03-31T01:20:48.332Z,8.10
2023-03-31T01:21:48.312Z,8.50
2023-03-31T01:22:48.305Z,7.80
2023-03-31T01:23:48.275Z,8.80
2023-03-31T01:24:48.273Z,6.90
2023-03-31T01:25:48.213Z,6.60
2023-03-31T01:26:48.196Z,9.40
2023-03-31T01:27:48.162Z,9.70
2023-03-31T01:28:48.140Z,10.10
2023-03-31T01:29:48.123Z,10.20
2023-03-31T01:30:48.085Z,7.10
2023-03-31T01:31:48.202Z,7.60
2023-03-31T01:32:48.103Z,7.70
2023-03-31T01:33:48.015Z,10.00
2023-03-31T01:34:47.991Z,7.10
2023-03-31T01:35:48.023Z,8.80
2023-03-31T01:36:47.950Z,6.80
2023-03-31T01:37:47.945Z,8.10
2023-03-31T01:38:47.925Z,7.30
2023-03-31T01:39:47.875Z,6.40
2023-03-31T01:40:47.844Z,8.60
2023-03-31T01:41:47.825Z,8.40
2023-03-31T01:42:47.805Z,9.80
2023-03-31T01:43:47.778Z,8.50
2023-03-31T01:44:47.758Z,9.10
2023-03-31T01:45:47.724Z,9.70
2023-03-31T01:46:47.793Z,7.10
2023-03-31T01:47:47.724Z,7.30
2023-03-31T01:48:47.654Z,6.50
2023-03-31T01:49:47.638Z,6.50
2023-03-31T01:50:47.613Z,7.20
2023-03-31T01:51:47.716Z,8.80
2023-03-31T01:52:47.566Z,7.70
2023-03-31T01:53:47.530Z,8.30
2023-03-31T01:54:47.539Z,6.50
2023-03-31T01:55:47.479Z,8.30
2023-03-31T01:56:47.504Z,8.20
2023-03-31T01:57:47.434Z,9.60
2023-03-31T01:58:47.407Z,9.80
2023-03-31T01:59:47.384Z,6.30
2023-03-31T02:00:47.363Z,9.30
2023-03-31T02:01:47.349Z,8.90
2023-03-31T02:02:47.416Z,9.00
2023-03-31T02:03:47.341Z,9.00
2023-03-31T02:04:47.281Z,9.60
2023-03-31T02:05:47.242Z,9.00
2023-03-31T02:06:47.224Z,7.60
2023-03-31T02:07:47.194Z,7.30
2023-03-31T02:08:47.176Z,6.40
2023-03-31T02:09:47.148Z,9.00
2023-03-31T02:10:47.156Z,7.00
2023-03-31T02:11:47.106Z,10.50
2023-03-31T02:12:47.076Z,7.30
2023-03-31T02:13:47.048Z,7.80
2023-03-31T02:14:47.023Z,8.80
2023-03-31T02:15:46.993Z,7.00
2023-03-31T02:16:47.034Z,6.40
2023-03-31T02:17:46.974Z,7.90
2023-03-31T02:18:46.927Z,7.00
2023-03-31T02:19:46.908Z,7.60
2023-03-31T02:20:46.887Z,7.00
2023-03-31T02:21:46.853Z,6.80
2023-03-31T02:22:46.829Z,8.00
2023-03-31T02:23:46.810Z,8.70
2023-03-31T02:24:46.788Z,8.20
2023-03-31T02:25:46.757Z,7.00
2023-03-31T02:26:46.761Z,7.50
2023-03-31T02:27:46.709Z,7.10
2023-03-31T02:28:46.688Z,10.00
2023-03-31T02:29:46.657Z,8.20
2023-03-31T02:30:46.636Z,6.90
2023-03-31T02:31:46.671Z,6.20
2023-03-31T02:32:46.630Z,7.50
2023-03-31T02:33:46.558Z,7.40
2023-03-31T02:34:46.541Z,9.80
2023-03-31T02:35:46.579Z,7.30
2023-03-31T02:36:46.509Z,8.40
2023-03-31T02:37:46.503Z,9.70
2023-03-31T02:38:46.450Z,7.20
2023-03-31T02:39:46.425Z,8.80
2023-03-31T02:40:46.422Z,7.30
2023-03-31T02:41:46.373Z,11.20
2023-03-31T02:42:46.385Z,6.80
2023-03-31T02:43:46.318Z,8.40
2023-03-31T02:44:46.296Z,7.70
2023-03-31T02:45:46.365Z,11.50
2023-03-31T02:46:46.257Z,7.90
2023-03-31T02:47:46.244Z,7.00
2023-03-31T02:48:46.207Z,10.20
2023-03-31T02:49:46.192Z,9.00
2023-03-31T02:50:46.157Z,7.40
2023-03-31T02:51:46.129Z,7.60
2023-03-31T02:52:46.104Z,9.10
2023-03-31T02:53:46.085Z,8.00
2023-03-31T02:54:46.062Z,7.40
2023-03-31T02:55:46.037Z,10.20
2023-03-31T02:56:46.069Z,7.80
2023-03-31T02:57:45.987Z,8.20
2023-03-31T02:58:45.988Z,7.60
2023-03-31T02:59:45.946Z,8.70
2023-03-31T03:00:45.916Z,8.70
2023-03-31T03:01:45.907Z,7.30
2023-03-31T03:02:45.919Z,7.50
2023-03-31T03:03:45.845Z,8.00
2023-03-31T03:04:45.815Z,8.30
2023-03-31T03:05:45.896Z,8.00
2023-03-31T03:06:45.770Z,8.10
2023-03-31T03:07:45.749Z,9.40
2023-03-31T03:08:45.726Z,8.40
2023-03-31T03:09:45.698Z,8.10
2023-03-31T03:10:45.675Z,8.90
2023-03-31T03:11:45.659Z,8.90
2023-03-31T03:12:45.634Z,10.30
2023-03-31T03:13:45.609Z,8.20
2023-03-31T03:14:45.642Z,6.90
2023-03-31T03:15:45.558Z,9.80
2023-03-31T03:16:45.568Z,8.80
2023-03-31T03:17:45.671Z,8.90
2023-03-31T03:18:45.478Z,8.80
2023-03-31T03:19:45.457Z,9.20
2023-03-31T03:20:45.436Z,8.40
2023-03-31T03:21:45.401Z,9.50
2023-03-31T03:22:45.380Z,6.40
2023-03-31T03:23:45.361Z,8.20
2023-03-31T03:24:45.335Z,8.60
2023-03-31T03:25:45.311Z,9.50
2023-03-31T03:26:45.288Z,8.10
2023-03-31T03:27:45.263Z,8.50
2023-03-31T03:28:45.247Z,8.70
2023-03-31T03:29:45.221Z,7.30
2023-03-31T03:30:45.256Z,9.40
2023-03-31T03:31:45.162Z,7.80
2023-03-31T03:32:45.213Z,8.30
2023-03-31T03:33:45.123Z,9.00
2023-03-31T03:34:45.100Z,9.30
2023-03-31T03:35:45.104Z,8.60
2023-03-31T03:36:45.054Z,8.60
2023-03-31T03:37:45.019Z,11.00
2023-03-31T03:38:45.015Z,9.80
2023-03-31T03:39:44.981Z,10.00
2023-03-31T03:40:44.959Z,10.50
2023-03-31T03:41:44.929Z,10.00
2023-03-31T03:42:44.916Z,8.60
2023-03-31T03:43:44.881Z,9.10
2023-03-31T03:44:44.862Z,8.40
2023-03-31T03:45:44.828Z,9.70
2023-03-31T03:46:44.854Z,9.70
2023-03-31T03:47:44.819Z,8.50
2023-03-31T03:48:44.782Z,9.50
2023-03-31T03:49:44.742Z,9.00
2023-03-31T03:50:44.717Z,9.30
2023-03-31T03:51:44.692Z,10.00
2023-03-31T03:52:44.667Z,8.50
2023-03-31T03:53:44.636Z,11.30
2023-03-31T03:54:44.607Z,13.20
2023-03-31T03:55:44.585Z,9.30
2023-03-31T03:56:44.582Z,12.20
2023-03-31T03:57:44.538Z,11.30
2023-03-31T03:58:44.515Z,11.00
2023-03-31T03:59:44.505Z,9.10
2023-03-31T04:00:44.510Z,12.30
2023-03-31T04:01:44.452Z,10.40
2023-03-31T04:02:44.653Z,10.10
2023-03-31T04:03:44.395Z,9.60
2023-03-31T04:04:44.384Z,10.00
2023-03-31T04:05:44.342Z,11.30
2023-03-31T04:06:44.316Z,11.40
2023-03-31T04:07:44.290Z,9.60
2023-03-31T04:08:44.272Z,12.20
2023-03-31T04:09:44.238Z,11.00
2023-03-31T04:10:44.221Z,12.10
2023-03-31T04:11:44.195Z,13.10
2023-03-31T04:12:44.173Z,12.90
2023-03-31T04:13:44.146Z,11.90
2023-03-31T04:14:44.131Z,11.50
2023-03-31T04:15:44.107Z,11.50
2023-03-31T04:16:44.184Z,11.40
2023-03-31T04:17:44.081Z,10.40
2023-03-31T04:18:44.062Z,10.30
2023-03-31T04:19:44.001Z,12.30
2023-03-31T04:20:43.981Z,13.50
2023-03-31T04:21:43.948Z,11.20
2023-03-31T04:22:43.931Z,11.70
2023-03-31T04:23:43.898Z,13.50
2023-03-31T04:24:43.883Z,9.70
2023-03-31T04:25:43.850Z,11.80
2023-03-31T04:26:43.828Z,12.00
2023-03-31T04:27:43.799Z,12.80
2023-03-31T04:28:43.780Z,10.60
2023-03-31T04:29:43.753Z,12.10
2023-03-31T04:30:43.729Z,12.90
2023-03-31T04:31:43.783Z,11.10
2023-03-31T04:32:43.712Z,12.20
2023-03-31T04:33:43.662Z,11.60
2023-03-31T04:34:43.660Z,11.30
2023-03-31T04:35:43.627Z,12.90
2023-03-31T04:36:43.589Z,11.80
2023-03-31T04:37:43.562Z,12.20
2023-03-31T04:38:43.544Z,12.60
2023-03-31T04:39:43.515Z,12.20
2023-03-31T04:40:43.492Z,13.00
2023-03-31T04:41:43.483Z,10.90
2023-03-31T04:42:43.445Z,13.30
2023-03-31T04:43:43.415Z,12.30
2023-03-31T04:44:43.392Z,10.60
2023-03-31T04:45:43.435Z,12.10
2023-03-31T04:46:43.340Z,11.40
2023-03-31T04:47:43.353Z,13.50
2023-03-31T04:48:43.296Z,14.50
2023-03-31T04:49:43.268Z,14.40
2023-03-31T04:50:43.269Z,11.00
2023-03-31T04:51:43.225Z,14.30
2023-03-31T04:52:43.202Z,14.70
2023-03-31T04:53:43.181Z,11.40
2023-03-31T04:54:43.153Z,10.50
2023-03-31T04:55:43.125Z,11.80
2023-03-31T04:56:43.144Z,14.10
2023-03-31T04:57:43.089Z,11.20
2023-03-31T04:58:43.060Z,12.00
2023-03-31T04:59:43.021Z,12.10
2023-03-31T05:00:43.004Z,11.30
2023-03-31T05:01:43.110Z,11.70
2023-03-31T05:02:43.039Z,11.60
2023-03-31T05:03:42.986Z,11.60
2023-03-31T05:04:42.915Z,9.60
2023-03-31T05:05:42.892Z,13.80
2023-03-31T05:06:42.887Z,12.10
2023-03-31T05:07:42.834Z,12.70
2023-03-31T05:08:42.828Z,14.00
2023-03-31T05:09:42.789Z,13.30
2023-03-31T05:10:42.768Z,14.80
2023-03-31T05:11:42.742Z,11.80
2023-03-31T05:12:42.722Z,10.20
2023-03-31T05:13:42.696Z,12.40
2023-03-31T05:14:42.677Z,13.60
2023-03-31T05:15:42.645Z,11.80
2023-03-31T05:16:42.654Z,12.50
2023-03-31T05:17:42.636Z,12.80
2023-03-31T05:18:42.581Z,13.80
2023-03-31T05:19:42.548Z,11.30
2023-03-31T05:20:42.532Z,13.40
2023-03-31T05:21:42.500Z,10.10
2023-03-31T05:22:43.937Z,9.10
2023-03-31T05:23:42.488Z,11.70
2023-03-31T05:24:42.434Z,11.90
2023-03-31T05:25:42.401Z,12.20
2023-03-31T05:26:42.390Z,15.30
2023-03-31T05:27:42.350Z,10.60
2023-03-31T05:28:42.334Z,12.00
2023-03-31T05:29:42.319Z,10.70
2023-03-31T05:30:42.293Z,13.00
2023-03-31T05:31:42.334Z,10.30
2023-03-31T05:32:42.265Z,10.10
2023-03-31T05:33:42.468Z,12.10
2023-03-31T05:34:42.187Z,13.40
2023-03-31T05:35:42.182Z,13.30
2023-03-31T05:36:42.138Z,12.30
2023-03-31T05:37:42.118Z,10.90
2023-03-31T05:38:42.111Z,11.90
2023-03-31T05:39:42.077Z,12.90
2023-03-31T05:40:42.055Z,12.70
2023-03-31T05:41:42.029Z,10.10
2023-03-31T05:42:42.029Z,11.50
2023-03-31T05:43:41.977Z,10.00
2023-03-31T05:44:41.948Z,12.10
2023-03-31T05:45:41.928Z,9.10
2023-03-31T05:46:41.925Z,11.00
2023-03-31T05:47:41.926Z,12.90
2023-03-31T05:48:41.844Z,12.50
2023-03-31T05:49:41.832Z,9.60
2023-03-31T05:50:41.797Z,9.50
2023-03-31T05:51:41.774Z,10.60
2023-03-31T05:52:41.752Z,9.20
2023-03-31T05:53:41.731Z,12.00
2023-03-31T05:54:41.724Z,10.90
2023-03-31T05:55:41.685Z,11.90
2023-03-31T05:56:41.652Z,8.90
2023-03-31T05:57:41.637Z,12.10
2023-03-31T05:58:41.607Z,10.70
2023-03-31T05:59:41.583Z,10.70
2023-03-31T06:00:41.554Z,9.30
2023-03-31T06:01:41.644Z,9.60
2023-03-31T06:02:41.565Z,9.00
2023-03-31T06:03:41.626Z,9.00
2023-03-31T06:04:41.482Z,11.10
2023-03-31T06:05:41.447Z,8.70
2023-03-31T06:06:41.411Z,8.80
2023-03-31T06:07:41.396Z,7.40
2023-03-31T06:08:41.360Z,11.40
2023-03-31T06:09:41.345Z,10.00
2023-03-31T06:10:41.337Z,9.40
2023-03-31T06:11:41.287Z,9.40
2023-03-31T06:12:41.266Z,11.40
2023-03-31T06:13:41.244Z,9.30
2023-03-31T06:14:41.213Z,12.80
2023-03-31T06:15:41.237Z,6.70
2023-03-31T06:16:41.166Z,10.60
2023-03-31T06:17:41.246Z,10.40
2023-03-31T06:18:41.122Z,9.00
2023-03-31T06:19:41.105Z,7.70
2023-03-31T06:20:41.080Z,9.30
2023-03-31T06:21:41.048Z,12.30
2023-03-31T06:22:41.027Z,6.80
2023-03-31T06:23:41.008Z,8.70
2023-03-31T06:24:40.971Z,6.30
2023-03-31T06:25:50.272Z,6.90
2023-03-31T06:26:40.946Z,8.30
2023-03-31T06:27:40.900Z,7.70
2023-03-31T06:28:40.874Z,7.90
2023-03-31T06:29:40.853Z,6.60
2023-03-31T06:30:40.826Z,6.30
2023-03-31T06:31:40.854Z,8.40
2023-03-31T06:32:40.845Z,7.70
2023-03-31T06:33:40.752Z,7.40
2023-03-31T06:34:40.734Z,7.90
2023-03-31T06:35:40.725Z,8.50
2023-03-31T06:36:40.689Z,7.50
2023-03-31T06:37:40.668Z,7.30
2023-03-31T06:38:40.631Z,7.90
2023-03-31T06:39:40.610Z,5.80
2023-03-31T06:40:40.583Z,8.40
2023-03-31T06:41:40.568Z,10.00
2023-03-31T06:42:40.562Z,8.50
2023-03-31T06:43:40.523Z,8.40
2023-03-31T06:44:40.496Z,8.10
2023-03-31T06:45:40.491Z,6.60
2023-03-31T06:46:40.478Z,8.10
2023-03-31T06:47:40.444Z,7.40
2023-03-31T06:48:40.385Z,9.50
2023-03-31T06:49:40.371Z,6.30
2023-03-31T06:50:40.337Z,8.20
2023-03-31T06:51:40.322Z,8.00
2023-03-31T06:52:40.289Z,7.90
2023-03-31T06:53:40.294Z,9.60
2023-03-31T06:54:40.242Z,7.00
2023-03-31T06:55:40.220Z,7.00
2023-03-31T06:56:40.206Z,7.80
2023-03-31T06:57:40.189Z,7.30
2023-03-31T06:58:40.165Z,6.20
2023-03-31T06:59:40.126Z,7.30
2023-03-31T07:00:40.098Z,7.80
2023-03-31T07:01:40.126Z,5.00
2023-03-31T07:02:40.165Z,7.40
2023-03-31T07:03:40.038Z,6.60
2023-03-31T07:04:40.028Z,6.40
2023-03-31T07:05:39.982Z,7.50
2023-03-31T07:06:39.948Z,6.50
2023-03-31T07:07:39.929Z,5.60
2023-03-31T07:08:39.903Z,9.50
2023-03-31T07:09:39.876Z,7.20
2023-03-31T07:10:39.857Z,6.60
2023-03-31T07:11:39.832Z,6.80
2023-03-31T07:12:39.801Z,7.70
2023-03-31T07:13:39.784Z,6.60
2023-03-31T07:14:39.778Z,7.00
2023-03-31T07:15:39.731Z,9.70
2023-03-31T07:16:39.768Z,5.40
2023-03-31T07:17:39.716Z,6.60
2023-03-31T07:19:39.636Z,6.20
2023-03-31T07:20:39.632Z,7.70
2023-03-31T07:21:39.590Z,9.10
2023-03-31T07:22:39.565Z,8.70
2023-03-31T07:23:39.544Z,6.80
2023-03-31T07:24:39.509Z,6.60
2023-03-31T07:25:39.506Z,4.50
2023-03-31T07:26:39.466Z,7.10
2023-03-31T07:27:39.447Z,5.40
2023-03-31T07:28:39.441Z,6.90
2023-03-31T07:29:39.394Z,6.70
2023-03-31T07:30:39.384Z,7.80
2023-03-31T07:31:39.379Z,6.50
2023-03-31T07:32:39.330Z,5.70
2023-03-31T07:33:39.303Z,5.90
2023-03-31T07:34:39.266Z,7.20
2023-03-31T07:35:39.262Z,6.10
2023-03-31T07:36:39.233Z,6.00
2023-03-31T07:37:39.195Z,7.50
2023-03-31T07:38:39.176Z,6.70
2023-03-31T07:39:39.150Z,6.70
2023-03-31T07:40:39.133Z,6.40
2023-03-31T07:41:39.096Z,7.30
2023-03-31T07:42:39.069Z,6.70
2023-03-31T07:43:39.048Z,6.10
2023-03-31T07:44:39.030Z,6.80
2023-03-31T07:45:39.050Z,6.70
2023-03-31T07:46:39.158Z,6.30
2023-03-31T07:47:39.016Z,7.10
2023-03-31T07:48:38.928Z,7.00
2023-03-31T07:49:38.900Z,7.10
2023-03-31T07:50:38.884Z,8.00
2023-03-31T07:51:38.870Z,6.60
2023-03-31T07:52:38.827Z,5.90
2023-03-31T07:53:38.809Z,6.80
2023-03-31T07:54:38.790Z,6.90
2023-03-31T07:55:38.760Z,5.20
2023-03-31T07:56:38.736Z,7.30
2023-03-31T07:57:38.716Z,6.80
2023-03-31T07:58:38.683Z,6.20
2023-03-31T07:59:38.659Z,7.20
2023-03-31T08:00:38.633Z,7.40
2023-03-31T08:01:38.666Z,6.30
2023-03-31T08:02:38.766Z,9.70
2023-03-31T08:03:38.606Z,7.80
2023-03-31T08:04:38.621Z,7.80
2023-03-31T08:05:38.518Z,8.10
2023-03-31T08:06:38.488Z,7.10
2023-03-31T08:07:38.468Z,6.20
2023-03-31T08:08:38.471Z,5.40
2023-03-31T08:09:38.423Z,7.80
2023-03-31T08:10:38.399Z,5.00
2023-03-31T08:11:38.370Z,6.70
2023-03-31T08:12:38.358Z,7.30
2023-03-31T08:13:38.324Z,7.10
2023-03-31T08:14:41.487Z,6.00
2023-03-31T08:15:38.292Z,6.60
2023-03-31T08:16:38.327Z,7.30
2023-03-31T08:17:38.323Z,7.20
2023-03-31T08:18:38.215Z,6.00
2023-03-31T08:19:38.184Z,5.90
2023-03-31T08:20:38.159Z,6.70
2023-03-31T08:21:38.132Z,6.70
2023-03-31T08:22:38.099Z,7.10
2023-03-31T08:23:38.085Z,8.20
2023-03-31T08:24:38.053Z,6.50
2023-03-31T08:25:38.028Z,7.20
2023-03-31T08:26:37.996Z,10.60
2023-03-31T08:27:37.979Z,8.50
2023-03-31T08:28:37.954Z,7.90
2023-03-31T08:29:37.925Z,6.80
2023-03-31T08:30:37.899Z,9.80
2023-03-31T08:31:37.907Z,9.60
2023-03-31T08:32:37.887Z,9.00
2023-03-31T08:33:37.831Z,7.40
2023-03-31T08:34:37.838Z,7.80
2023-03-31T08:35:37.830Z,6.20
2023-03-31T08:36:37.753Z,6.70
2023-03-31T08:37:37.736Z,7.00
2023-03-31T08:38:37.756Z,8.80
2023-03-31T08:39:37.697Z,6.00
2023-03-31T08:40:37.661Z,7.00
2023-03-31T08:41:37.645Z,6.30
2023-03-31T08:42:37.604Z,6.50
2023-03-31T08:43:37.587Z,5.50
2023-03-31T08:44:37.565Z,8.80
2023-03-31T08:45:37.609Z,7.60
2023-03-31T08:46:37.554Z,8.70
2023-03-31T08:47:37.516Z,9.20
2023-03-31T08:48:37.458Z,6.50
2023-03-31T08:49:37.439Z,7.50
2023-03-31T08:50:37.501Z,7.30
2023-03-31T08:51:37.389Z,7.20
2023-03-31T08:52:37.362Z,6.70
2023-03-31T08:53:37.342Z,7.80
2023-03-31T08:54:37.321Z,6.50
2023-03-31T08:55:37.290Z,7.50
2023-03-31T08:56:37.271Z,7.30
2023-03-31T08:57:37.245Z,7.80
2023-03-31T08:58:37.217Z,5.70
2023-03-31T08:59:37.193Z,6.50
2023-03-31T09:00:37.167Z,6.50
2023-03-31T09:01:47.688Z,9.10
2023-03-31T09:02:37.234Z,6.10
2023-03-31T09:03:37.187Z,6.10
2023-03-31T09:04:37.074Z,7.70
2023-03-31T09:05:45.994Z,6.70
2023-03-31T09:06:37.043Z,7.80
2023-03-31T09:07:37.005Z,7.00
2023-03-31T09:08:36.971Z,5.90
2023-03-31T09:09:36.956Z,8.80
2023-03-31T09:10:36.948Z,6.80
2023-03-31T09:11:36.944Z,5.20
2023-03-31T09:12:36.889Z,7.20
2023-03-31T09:13:36.857Z,7.60
2023-03-31T09:14:36.825Z,6.20
2023-03-31T09:15:36.803Z,5.70
2023-03-31T09:16:36.803Z,6.30
2023-03-31T09:17:36.813Z,7.50
2023-03-31T09:18:36.734Z,6.70
2023-03-31T09:19:36.723Z,6.50
2023-03-31T09:20:36.685Z,5.70
2023-03-31T09:21:36.656Z,5.90
2023-03-31T09:22:36.653Z,6.60
2023-03-31T09:23:36.617Z,6.30
2023-03-31T09:24:36.609Z,6.40
2023-03-31T09:25:36.577Z,7.50
2023-03-31T09:26:36.536Z,5.60
2023-03-31T09:27:36.520Z,6.70
2023-03-31T09:28:36.493Z,6.40
2023-03-31T09:29:36.802Z,7.60
2023-03-31T09:30:36.445Z,7.00
2023-03-31T09:31:36.484Z,6.10
2023-03-31T09:32:36.398Z,5.40
2023-03-31T09:33:36.370Z,7.30
2023-03-31T09:34:36.350Z,6.80
2023-03-31T09:35:36.366Z,6.50
2023-03-31T09:36:36.295Z,6.20
2023-03-31T09:37:36.280Z,6.20
2023-03-31T09:38:36.262Z,7.10
2023-03-31T09:39:36.226Z,5.40
2023-03-31T09:40:36.198Z,6.10
2023-03-31T09:41:36.178Z,7.60
2023-03-31T09:42:36.194Z,5.90
2023-03-31T09:43:36.133Z,6.50
2023-03-31T09:44:36.098Z,5.90
2023-03-31T09:45:36.077Z,7.20
2023-03-31T09:46:36.134Z,8.40
2023-03-31T09:47:36.069Z,6.60
2023-03-31T09:48:36.014Z,6.30
2023-03-31T09:49:35.997Z,5.90
2023-03-31T09:50:35.959Z,8.10
2023-03-31T09:51:35.936Z,7.90
2023-03-31T09:52:35.907Z,5.30
2023-03-31T09:53:35.889Z,6.70
2023-03-31T09:54:35.888Z,6.30
2023-03-31T09:55:39.989Z,7.10
2023-03-31T09:56:35.818Z,8.10
2023-03-31T09:57:36.097Z,7.70
2023-03-31T09:58:35.779Z,6.30
2023-03-31T09:59:35.745Z,7.20
2023-03-31T10:00:35.716Z,8.40
2023-03-31T10:01:35.710Z,8.20
2023-03-31T10:02:35.727Z,6.80
2023-03-31T10:03:35.730Z,7.10
2023-03-31T10:04:35.801Z,8.30
2023-03-31T10:05:35.601Z,7.50
2023-03-31T10:06:35.570Z,5.80
2023-03-31T10:07:35.548Z,8.60
2023-03-31T10:08:35.518Z,8.30
2023-03-31T10:09:35.498Z,7.60
2023-03-31T10:10:35.499Z,7.40
2023-03-31T10:11:35.440Z,8.20
2023-03-31T10:12:35.423Z,6.80
2023-03-31T10:13:35.397Z,6.20
2023-03-31T10:14:35.379Z,7.80
2023-03-31T10:15:35.351Z,17.50
2023-03-31T10:16:35.333Z,8.10
2023-03-31T10:17:47.079Z,10.70
2023-03-31T10:18:35.324Z,11.30
2023-03-31T10:19:35.268Z,7.80
2023-03-31T10:20:35.229Z,6.40
2023-03-31T10:21:35.211Z,9.10
2023-03-31T10:22:35.183Z,5.50
2023-03-31T10:23:35.162Z,7.80
2023-03-31T10:24:35.138Z,7.50
2023-03-31T10:25:35.103Z,8.00
2023-03-31T10:26:35.108Z,7.60
2023-03-31T10:27:35.055Z,7.70
2023-03-31T10:28:35.026Z,6.00
2023-03-31T10:29:35.009Z,6.50
2023-03-31T10:30:34.977Z,7.20
2023-03-31T10:31:34.996Z,6.80
2023-03-31T10:32:34.975Z,7.80
2023-03-31T10:33:35.093Z,7.60
2023-03-31T10:34:34.887Z,8.30
2023-03-31T10:35:34.933Z,7.70
2023-03-31T10:36:34.832Z,7.50
2023-03-31T10:37:34.813Z,7.50
2023-03-31T10:38:34.789Z,8.10
2023-03-31T10:39:34.757Z,6.50
2023-03-31T10:40:34.793Z,6.90
2023-03-31T10:41:34.711Z,7.30
2023-03-31T10:42:34.719Z,7.30
2023-03-31T10:43:34.660Z,8.50
2023-03-31T10:44:34.638Z,7.30
2023-03-31T10:45:37.723Z,9.70
2023-03-31T10:46:34.651Z,6.30
2023-03-31T10:47:34.596Z,8.50
2023-03-31T10:48:34.546Z,10.70
2023-03-31T10:49:34.522Z,7.70
2023-03-31T10:50:34.500Z,8.30
2023-03-31T10:51:34.479Z,8.10
2023-03-31T10:52:34.451Z,8.00
2023-03-31T10:53:34.446Z,8.50
2023-03-31T10:54:34.411Z,6.90
2023-03-31T10:55:34.375Z,7.80
2023-03-31T10:56:34.358Z,6.50
2023-03-31T10:57:34.418Z,6.70
2023-03-31T10:58:34.333Z,7.70
2023-03-31T10:59:34.275Z,8.50
2023-03-31T11:00:34.262Z,7.50
2023-03-31T11:01:34.255Z,9.40
2023-03-31T11:02:34.274Z,9.70
2023-03-31T11:03:34.274Z,7.80
2023-03-31T11:04:34.167Z,7.40
2023-03-31T11:05:34.134Z,8.70
2023-03-31T11:06:34.118Z,8.40
2023-03-31T11:07:34.090Z,7.60
2023-03-31T11:08:34.114Z,9.10
2023-03-31T11:09:34.058Z,8.20
2023-03-31T11:10:34.039Z,7.50
2023-03-31T11:11:34.004Z,8.50
2023-03-31T11:12:33.974Z,8.40
2023-03-31T11:13:34.104Z,8.20
2023-03-31T11:14:33.953Z,8.90
2023-03-31T11:15:33.946Z,8.10
2023-03-31T11:16:33.989Z,7.70
2023-03-31T11:17:33.874Z,7.20
2023-03-31T11:18:33.848Z,8.10
2023-03-31T11:19:33.811Z,8.50
2023-03-31T11:20:33.794Z,6.00
2023-03-31T11:21:33.787Z,8.10
2023-03-31T11:22:33.739Z,7.30
2023-03-31T11:23:33.718Z,11.00
2023-03-31T11:24:33.699Z,7.20
2023-03-31T11:25:33.668Z,6.90
2023-03-31T11:26:33.656Z,8.70
2023-03-31T11:27:33.614Z,9.00
2023-03-31T11:28:33.599Z,7.00
2023-03-31T11:29:33.583Z,7.40
2023-03-31T11:30:33.596Z,8.00
2023-03-31T11:31:33.579Z,9.30
2023-03-31T11:32:33.622Z,8.20
2023-03-31T11:33:33.482Z,9.50
2023-03-31T11:34:33.456Z,9.20
2023-03-31T11:35:33.499Z,8.90
2023-03-31T11:36:33.409Z,7.20
2023-03-31T11:37:33.396Z,7.00
2023-03-31T11:38:33.357Z,5.60
2023-03-31T11:39:33.337Z,8.20
2023-03-31T11:40:33.318Z,6.50
2023-03-31T11:41:33.291Z,6.40
2023-03-31T11:42:33.275Z,7.90
2023-03-31T11:43:33.265Z,8.10
2023-03-31T11:44:33.222Z,6.80
2023-03-31T11:45:33.196Z,8.20
2023-03-31T11:46:33.289Z,7.00
2023-03-31T11:47:33.171Z,9.10
2023-03-31T11:48:33.138Z,6.70
2023-03-31T11:49:33.109Z,8.50
2023-03-31T11:50:33.083Z,9.10
2023-03-31T11:51:33.063Z,5.70
2023-03-31T11:52:33.045Z,8.20
2023-03-31T11:53:33.014Z,10.20
2023-03-31T11:54:32.992Z,6.40
2023-03-31T11:55:32.982Z,7.80
2023-03-31T11:56:32.959Z,8.90
2023-03-31T11:57:33.033Z,8.40
2023-03-31T11:58:32.911Z,7.90
2023-03-31T11:59:32.882Z,6.90
2023-03-31T12:00:32.862Z,8.60
2023-03-31T12:01:32.832Z,7.30
2023-03-31T12:02:32.847Z,9.20
2023-03-31T12:03:32.806Z,10.10
2023-03-31T12:04:32.770Z,8.40
2023-03-31T12:05:32.759Z,6.90
2023-03-31T12:06:32.723Z,8.10
2023-03-31T12:07:32.701Z,7.60
2023-03-31T12:08:32.678Z,10.20
2023-03-31T12:09:32.644Z,8.50
2023-03-31T12:10:32.627Z,7.40
2023-03-31T12:11:32.604Z,9.60
2023-03-31T12:12:32.583Z,7.80
2023-03-31T12:13:32.558Z,8.50
2023-03-31T12:14:32.551Z,9.60
2023-03-31T12:15:32.516Z,8.10
2023-03-31T12:16:32.519Z,7.80
2023-03-31T12:17:32.488Z,8.90
2023-03-31T12:18:32.468Z,8.70
2023-03-31T12:19:32.418Z,9.00
2023-03-31T12:20:32.403Z,7.80
2023-03-31T12:21:32.390Z,9.20
2023-03-31T12:22:32.355Z,8.60
2023-03-31T12:23:32.338Z,9.60
2023-03-31T12:24:32.327Z,8.10
2023-03-31T12:25:32.288Z,8.20
2023-03-31T12:26:32.263Z,9.70
2023-03-31T12:27:32.236Z,8.20
2023-03-31T12:28:32.218Z,7.90
2023-03-31T12:29:32.194Z,10.20
2023-03-31T12:30:32.169Z,8.40
2023-03-31T12:31:32.230Z,8.90
2023-03-31T12:32:32.218Z,7.60
2023-03-31T12:33:32.107Z,7.40
2023-03-31T12:34:32.102Z,9.00
2023-03-31T12:35:32.065Z,7.50
2023-03-31T12:36:32.034Z,8.40
2023-03-31T12:37:32.010Z,8.20
2023-03-31T12:38:31.990Z,10.20
2023-03-31T12:39:31.963Z,10.60
2023-03-31T12:40:31.940Z,7.80
2023-03-31T12:41:31.931Z,7.60
2023-03-31T12:42:31.887Z,8.60
2023-03-31T12:43:31.869Z,10.50
2023-03-31T12:44:31.857Z,11.70
2023-03-31T12:45:31.828Z,11.10
2023-03-31T12:46:31.852Z,10.00
2023-03-31T12:47:31.795Z,7.90
2023-03-31T12:48:31.745Z,10.50
2023-03-31T12:49:31.721Z,8.90
2023-03-31T12:50:31.750Z,9.60
2023-03-31T12:51:31.673Z,8.40
2023-03-31T12:52:31.661Z,8.20
2023-03-31T12:53:31.627Z,9.30
2023-03-31T12:54:31.606Z,8.40
2023-03-31T12:55:31.589Z,8.70
2023-03-31T12:56:31.564Z,12.10
2023-03-31T12:57:31.561Z,10.00
2023-03-31T12:58:33.091Z,9.30
2023-03-31T12:59:31.486Z,9.70
2023-03-31T13:00:31.502Z,11.30
2023-03-31T13:01:31.565Z,9.40
2023-03-31T13:02:31.570Z,10.50
2023-03-31T13:03:31.397Z,8.20
2023-03-31T13:04:31.374Z,7.90
2023-03-31T13:05:31.357Z,7.90
2023-03-31T13:06:31.360Z,9.00
2023-03-31T13:07:31.308Z,9.40
2023-03-31T13:08:31.291Z,7.30
2023-03-31T13:09:31.258Z,9.80
2023-03-31T13:10:31.325Z,8.10
2023-03-31T13:11:31.209Z,9.00
2023-03-31T13:12:31.197Z,10.20
2023-03-31T13:13:31.167Z,8.90
2023-03-31T13:14:31.136Z,7.60